DLH110 EDDM-EDDN
Flight info
| Callsign | DLH110 |
|---|---|
| Flight time | 0h 33m |
| Altitude | 14000 |
| Route | INPUD2N/26R INPUD Y102 UPALA UPALA1V |
| Aircraft | A21N/M-SDE2E3FGHIRWXY/LB1 |
Departure
| Time | 2026-05-05 14:37 |
|---|---|
| Airport | Munich Airport (EDDM) |
Arrival
| Time | 2026-05-05 15:10 |
|---|---|
| Airport | Nuremberg Airport (EDDN) |
| Time | Latitude | Longitude | Altitude | Speed | Heading |
|---|---|---|---|---|---|
| 2026-05-05 14:29 | 48.35928 | 11.79491 | 1468 ft | 0 kts | 26° |
| 2026-05-05 14:30 | 48.35949 | 11.79500 | 1468 ft | 7 kts | 11° |
| 2026-05-05 14:31 | 48.36016 | 11.79495 | 1461 ft | 11 kts | 353° |
| 2026-05-05 14:31 | 48.36100 | 11.79479 | 1469 ft | 11 kts | 354° |
| 2026-05-05 14:31 | 48.36176 | 11.79473 | 1466 ft | 12 kts | 12° |
| 2026-05-05 14:31 | 48.36224 | 11.79578 | 1461 ft | 14 kts | 82° |
| 2026-05-05 14:32 | 48.36234 | 11.79734 | 1463 ft | 16 kts | 84° |
| 2026-05-05 14:32 | 48.36248 | 11.79916 | 1466 ft | 19 kts | 83° |
| 2026-05-05 14:32 | 48.36265 | 11.80129 | 1461 ft | 22 kts | 83° |
| 2026-05-05 14:32 | 48.36283 | 11.80367 | 1467 ft | 24 kts | 83° |
| 2026-05-05 14:33 | 48.36304 | 11.80625 | 1469 ft | 26 kts | 84° |
| 2026-05-05 14:33 | 48.36324 | 11.80895 | 1462 ft | 26 kts | 83° |
| 2026-05-05 14:33 | 48.36344 | 11.81163 | 1467 ft | 26 kts | 84° |
| 2026-05-05 14:33 | 48.36366 | 11.81434 | 1460 ft | 27 kts | 83° |
| 2026-05-05 14:34 | 48.36379 | 11.81607 | 1462 ft | 25 kts | 83° |
| 2026-05-05 14:34 | 48.36394 | 11.81826 | 1465 ft | 16 kts | 83° |
| 2026-05-05 14:34 | 48.36442 | 11.81997 | 1463 ft | 15 kts | 24° |
| 2026-05-05 14:34 | 48.36555 | 11.81992 | 1463 ft | 18 kts | 353° |
| 2026-05-05 14:35 | 48.36656 | 11.81964 | 1465 ft | 11 kts | 326° |
| 2026-05-05 14:35 | 48.36672 | 11.81889 | 1468 ft | 0 kts | 262° |
| 2026-05-05 14:36 | 48.36671 | 11.81884 | 1468 ft | 3 kts | 263° |
| 2026-05-05 14:36 | 48.36642 | 11.81514 | 1463 ft | 73 kts | 263° |
| 2026-05-05 14:36 | 48.36553 | 11.80355 | 1462 ft | 151 kts | 264° |
| 2026-05-05 14:36 | 48.36371 | 11.77931 | 2055 ft | 181 kts | 264° |
| 2026-05-05 14:37 | 48.36242 | 11.76055 | 2995 ft | 180 kts | 265° |
| 2026-05-05 14:37 | 48.36132 | 11.74172 | 3879 ft | 181 kts | 264° |
| 2026-05-05 14:37 | 48.36045 | 11.72855 | 4224 ft | 197 kts | 264° |
| 2026-05-05 14:37 | 48.35903 | 11.70693 | 4564 ft | 223 kts | 264° |
| 2026-05-05 14:38 | 48.35740 | 11.68240 | 4944 ft | 249 kts | 264° |
| 2026-05-05 14:38 | 48.35897 | 11.65602 | 5640 ft | 256 kts | 293° |
| 2026-05-05 14:38 | 48.36986 | 11.63485 | 6486 ft | 265 kts | 327° |
| 2026-05-05 14:38 | 48.38758 | 11.62725 | 7264 ft | 274 kts | 3° |
| 2026-05-05 14:39 | 48.40681 | 11.63285 | 7940 ft | 288 kts | 11° |
| 2026-05-05 14:39 | 48.42671 | 11.63404 | 8947 ft | 286 kts | 356° |
| 2026-05-05 14:39 | 48.44654 | 11.63120 | 9911 ft | 287 kts | 352° |
| 2026-05-05 14:39 | 48.46635 | 11.62676 | 10773 ft | 290 kts | 350° |
| 2026-05-05 14:40 | 48.48612 | 11.62161 | 11593 ft | 294 kts | 349° |
| 2026-05-05 14:40 | 48.50625 | 11.61602 | 12416 ft | 298 kts | 349° |
| 2026-05-05 14:40 | 48.52679 | 11.61015 | 13232 ft | 302 kts | 349° |
| 2026-05-05 14:40 | 48.54752 | 11.60413 | 13770 ft | 304 kts | 348° |
| 2026-05-05 14:41 | 48.56828 | 11.59739 | 13976 ft | 307 kts | 343° |
| 2026-05-05 14:41 | 48.58857 | 11.58720 | 14002 ft | 307 kts | 339° |
| 2026-05-05 14:41 | 48.60858 | 11.57577 | 13998 ft | 308 kts | 339° |
| 2026-05-05 14:41 | 48.62855 | 11.56412 | 13994 ft | 308 kts | 338° |
| 2026-05-05 14:42 | 48.64827 | 11.55260 | 14001 ft | 308 kts | 338° |
| 2026-05-05 14:42 | 48.66825 | 11.54097 | 13998 ft | 308 kts | 339° |
| 2026-05-05 14:42 | 48.69502 | 11.52544 | 14003 ft | 308 kts | 339° |
| 2026-05-05 14:42 | 48.70827 | 11.51776 | 13996 ft | 308 kts | 339° |
| 2026-05-05 14:43 | 48.72826 | 11.50617 | 14000 ft | 308 kts | 339° |
| 2026-05-05 14:43 | 48.74825 | 11.49457 | 14003 ft | 308 kts | 339° |
| 2026-05-05 14:43 | 48.76829 | 11.48294 | 13969 ft | 314 kts | 339° |
| 2026-05-05 14:43 | 48.78996 | 11.47034 | 13762 ft | 352 kts | 339° |
| 2026-05-05 14:44 | 48.81354 | 11.45662 | 13596 ft | 370 kts | 339° |
| 2026-05-05 14:44 | 48.83737 | 11.44276 | 13346 ft | 373 kts | 339° |
| 2026-05-05 14:44 | 48.86157 | 11.42868 | 13090 ft | 372 kts | 339° |
| 2026-05-05 14:44 | 48.88570 | 11.41461 | 12848 ft | 371 kts | 339° |
| 2026-05-05 14:45 | 48.90975 | 11.40058 | 12597 ft | 370 kts | 339° |
| 2026-05-05 14:45 | 48.93372 | 11.38658 | 12345 ft | 368 kts | 339° |
| 2026-05-05 14:45 | 48.95760 | 11.37261 | 12096 ft | 367 kts | 339° |
| 2026-05-05 14:45 | 48.98135 | 11.35870 | 11851 ft | 365 kts | 339° |
| 2026-05-05 14:46 | 49.00500 | 11.34484 | 11595 ft | 364 kts | 339° |
| 2026-05-05 14:46 | 49.02864 | 11.33097 | 11334 ft | 363 kts | 339° |
| 2026-05-05 14:46 | 49.05179 | 11.31737 | 11099 ft | 361 kts | 339° |
| 2026-05-05 14:46 | 49.07526 | 11.30357 | 10855 ft | 360 kts | 339° |
| 2026-05-05 14:47 | 49.09851 | 11.28989 | 10531 ft | 355 kts | 339° |
| 2026-05-05 14:47 | 49.12112 | 11.27658 | 10200 ft | 342 kts | 339° |
| 2026-05-05 14:47 | 49.14342 | 11.26343 | 10026 ft | 347 kts | 338° |
| 2026-05-05 14:47 | 49.16614 | 11.25002 | 9993 ft | 347 kts | 338° |
| 2026-05-05 14:48 | 49.18791 | 11.23717 | 9991 ft | 324 kts | 338° |
| 2026-05-05 14:48 | 49.20797 | 11.22422 | 9987 ft | 302 kts | 332° |
| 2026-05-05 14:48 | 49.22477 | 11.20715 | 9993 ft | 289 kts | 321° |
| 2026-05-05 14:48 | 49.24011 | 11.18744 | 10000 ft | 288 kts | 319° |
| 2026-05-05 14:49 | 49.25583 | 11.16627 | 10020 ft | 318 kts | 318° |
| 2026-05-05 14:49 | 49.27291 | 11.14308 | 9992 ft | 328 kts | 317° |
| 2026-05-05 14:49 | 49.28735 | 11.11830 | 9983 ft | 299 kts | 301° |
| 2026-05-05 14:49 | 49.29518 | 11.08981 | 9997 ft | 288 kts | 283° |
| 2026-05-05 14:50 | 49.29903 | 11.05916 | 10015 ft | 304 kts | 279° |
| 2026-05-05 14:50 | 49.30228 | 11.02575 | 10014 ft | 328 kts | 278° |
| 2026-05-05 14:50 | 49.30562 | 10.99013 | 10001 ft | 346 kts | 278° |
| 2026-05-05 14:50 | 49.30909 | 10.95360 | 10003 ft | 353 kts | 278° |
| 2026-05-05 14:51 | 49.31261 | 10.91678 | 9993 ft | 340 kts | 278° |
| 2026-05-05 14:51 | 49.31593 | 10.88221 | 9991 ft | 317 kts | 278° |
| 2026-05-05 14:51 | 49.31904 | 10.84998 | 9989 ft | 296 kts | 278° |
| 2026-05-05 14:51 | 49.32198 | 10.81933 | 9996 ft | 288 kts | 278° |
| 2026-05-05 14:52 | 49.32490 | 10.78897 | 9999 ft | 288 kts | 278° |
| 2026-05-05 14:52 | 49.32905 | 10.75895 | 9999 ft | 289 kts | 288° |
| 2026-05-05 14:52 | 49.33787 | 10.73011 | 10015 ft | 317 kts | 303° |
| 2026-05-05 14:52 | 49.35346 | 10.70414 | 10010 ft | 344 kts | 322° |
| 2026-05-05 14:53 | 49.37455 | 10.68712 | 9995 ft | 349 kts | 342° |
| 2026-05-05 14:53 | 49.39768 | 10.68204 | 9992 ft | 326 kts | 1° |
| 2026-05-05 14:53 | 49.41884 | 10.68985 | 9987 ft | 305 kts | 29° |
| 2026-05-05 14:53 | 49.43370 | 10.71106 | 10039 ft | 288 kts | 59° |
| 2026-05-05 14:54 | 49.43996 | 10.74010 | 9860 ft | 290 kts | 89° |
| 2026-05-05 14:54 | 49.43587 | 10.77003 | 9602 ft | 288 kts | 118° |
| 2026-05-05 14:54 | 49.42583 | 10.79673 | 9367 ft | 289 kts | 120° |
| 2026-05-05 14:54 | 49.41737 | 10.82468 | 9121 ft | 289 kts | 108° |
| 2026-05-05 14:55 | 49.41376 | 10.85442 | 8869 ft | 288 kts | 91° |
| 2026-05-05 14:55 | 49.41415 | 10.88505 | 8621 ft | 287 kts | 89° |
| 2026-05-05 14:55 | 49.41312 | 10.91556 | 8372 ft | 286 kts | 96° |
| 2026-05-05 14:55 | 49.41060 | 10.94583 | 8123 ft | 285 kts | 98° |
| 2026-05-05 14:56 | 49.40773 | 10.97585 | 7873 ft | 284 kts | 98° |
| 2026-05-05 14:56 | 49.40479 | 11.00585 | 7621 ft | 283 kts | 98° |
| 2026-05-05 14:56 | 49.40187 | 11.03563 | 7374 ft | 282 kts | 98° |
| 2026-05-05 14:56 | 49.39894 | 11.06537 | 7122 ft | 281 kts | 98° |
| 2026-05-05 14:57 | 49.39603 | 11.09493 | 6874 ft | 280 kts | 98° |
| 2026-05-05 14:57 | 49.39315 | 11.12401 | 6622 ft | 279 kts | 98° |
| 2026-05-05 14:57 | 49.39024 | 11.15342 | 6369 ft | 278 kts | 98° |
| 2026-05-05 14:57 | 49.38733 | 11.18263 | 6144 ft | 277 kts | 98° |
| 2026-05-05 14:58 | 49.38443 | 11.21178 | 6012 ft | 276 kts | 98° |
| 2026-05-05 14:58 | 49.38152 | 11.24093 | 5890 ft | 276 kts | 98° |
| 2026-05-05 14:58 | 49.37861 | 11.26995 | 5759 ft | 275 kts | 99° |
| 2026-05-05 14:58 | 49.37569 | 11.29897 | 5636 ft | 275 kts | 99° |
| 2026-05-05 14:59 | 49.37276 | 11.32797 | 5510 ft | 275 kts | 99° |
| 2026-05-05 14:59 | 49.36984 | 11.35684 | 5368 ft | 274 kts | 99° |
| 2026-05-05 14:59 | 49.36691 | 11.38572 | 5199 ft | 274 kts | 99° |
| 2026-05-05 14:59 | 49.36403 | 11.41411 | 5022 ft | 273 kts | 99° |
| 2026-05-05 15:00 | 49.36110 | 11.44281 | 4848 ft | 272 kts | 99° |
| 2026-05-05 15:00 | 49.35913 | 11.46220 | 4733 ft | 272 kts | 99° |
| 2026-05-05 15:00 | 49.35526 | 11.50002 | 4566 ft | 271 kts | 99° |
| 2026-05-05 15:00 | 49.35239 | 11.52800 | 4427 ft | 259 kts | 98° |
| 2026-05-05 15:01 | 49.35131 | 11.55480 | 4272 ft | 246 kts | 84° |
| 2026-05-05 15:01 | 49.35562 | 11.57935 | 4221 ft | 235 kts | 63° |
| 2026-05-05 15:01 | 49.36536 | 11.59926 | 4227 ft | 235 kts | 40° |
| 2026-05-05 15:01 | 49.37907 | 11.61195 | 4217 ft | 235 kts | 18° |
| 2026-05-05 15:02 | 49.39491 | 11.61789 | 4216 ft | 235 kts | 9° |
| 2026-05-05 15:02 | 49.41118 | 11.61995 | 4217 ft | 235 kts | 355° |
| 2026-05-05 15:02 | 49.42689 | 11.61412 | 4215 ft | 233 kts | 333° |
| 2026-05-05 15:02 | 49.43982 | 11.59950 | 4218 ft | 232 kts | 310° |
| 2026-05-05 15:03 | 49.44789 | 11.57826 | 4223 ft | 231 kts | 288° |
| 2026-05-05 15:03 | 49.45161 | 11.55422 | 4220 ft | 232 kts | 281° |
| 2026-05-05 15:03 | 49.45437 | 11.52973 | 4221 ft | 233 kts | 279° |
| 2026-05-05 15:03 | 49.45688 | 11.50514 | 4220 ft | 233 kts | 278° |
| 2026-05-05 15:04 | 49.45925 | 11.48083 | 4223 ft | 233 kts | 278° |
| 2026-05-05 15:04 | 49.46159 | 11.45620 | 4216 ft | 233 kts | 278° |
| 2026-05-05 15:04 | 49.46390 | 11.43155 | 4216 ft | 233 kts | 278° |
| 2026-05-05 15:04 | 49.46625 | 11.40698 | 4239 ft | 230 kts | 278° |
| 2026-05-05 15:05 | 49.47081 | 11.36038 | 4216 ft | 213 kts | 278° |
| 2026-05-05 15:05 | 49.47294 | 11.33898 | 4214 ft | 191 kts | 278° |
| 2026-05-05 15:05 | 49.47485 | 11.31989 | 4209 ft | 172 kts | 278° |
| 2026-05-05 15:06 | 49.47656 | 11.30255 | 4216 ft | 155 kts | 278° |
| 2026-05-05 15:06 | 49.47810 | 11.28678 | 3993 ft | 144 kts | 277° |
| 2026-05-05 15:06 | 49.47947 | 11.27172 | 3741 ft | 142 kts | 277° |
| 2026-05-05 15:06 | 49.48085 | 11.25676 | 3493 ft | 141 kts | 278° |
| 2026-05-05 15:07 | 49.48239 | 11.24202 | 3262 ft | 142 kts | 279° |
| 2026-05-05 15:07 | 49.48405 | 11.22717 | 2974 ft | 140 kts | 277° |
| 2026-05-05 15:07 | 49.48534 | 11.21233 | 2639 ft | 139 kts | 277° |
| 2026-05-05 15:07 | 49.48667 | 11.19765 | 2411 ft | 138 kts | 278° |
| 2026-05-05 15:08 | 49.48827 | 11.18307 | 2201 ft | 139 kts | 278° |
| 2026-05-05 15:08 | 49.48967 | 11.16844 | 2047 ft | 139 kts | 277° |
| 2026-05-05 15:08 | 49.49101 | 11.15382 | 1861 ft | 138 kts | 278° |
| 2026-05-05 15:08 | 49.49246 | 11.13920 | 1668 ft | 139 kts | 278° |
| 2026-05-05 15:09 | 49.49395 | 11.12486 | 1463 ft | 138 kts | 278° |
| 2026-05-05 15:09 | 49.49543 | 11.11036 | 1272 ft | 137 kts | 278° |
| 2026-05-05 15:09 | 49.49690 | 11.09591 | 1087 ft | 137 kts | 278° |
| 2026-05-05 15:09 | 49.49827 | 11.08226 | 1031 ft | 117 kts | 279° |
| 2026-05-05 15:10 | 49.49908 | 11.07413 | 1033 ft | 43 kts | 279° |
| 2026-05-05 15:10 | 49.49936 | 11.07127 | 1025 ft | 18 kts | 276° |
| 2026-05-05 15:10 | 49.49887 | 11.07020 | 1023 ft | 11 kts | 181° |
| 2026-05-05 15:10 | 49.49831 | 11.07043 | 1021 ft | 0 kts | 159° |
| 2026-05-05 15:12 | 49.49816 | 11.07052 | 1022 ft | 7 kts | 158° |
| 2026-05-05 15:12 | 49.49752 | 11.07113 | 1024 ft | 14 kts | 122° |
| 2026-05-05 15:12 | 49.49734 | 11.07258 | 1026 ft | 17 kts | 97° |
| 2026-05-05 15:12 | 49.49716 | 11.07431 | 1030 ft | 14 kts | 99° |
| 2026-05-05 15:13 | 49.49702 | 11.07566 | 1034 ft | 12 kts | 99° |
| 2026-05-05 15:13 | 49.49691 | 11.07684 | 1035 ft | 11 kts | 97° |
| 2026-05-05 15:13 | 49.49664 | 11.07774 | 1034 ft | 9 kts | 124° |
| 2026-05-05 15:13 | 49.49629 | 11.07814 | 1034 ft | 6 kts | 175° |
| 2026-05-05 15:14 | 49.49587 | 11.07806 | 1033 ft | 7 kts | 187° |
| 2026-05-05 15:14 | 49.49548 | 11.07798 | 1032 ft | 1 kts | 188° |
| 2026-05-05 15:14 | 49.49528 | 11.07794 | 1031 ft | 4 kts | 189° |
| 2026-05-05 15:14 | 49.49522 | 11.07792 | 1031 ft | 0 kts | 189° |